Thompson Airport
CYTH : now visible

Airfield :











YOU CAN JOIN US ON...

 
LOGIN :

Register | Disclaimer

   EN    FR    IT 

 









Legend :    VFR   Marginal VFR   IFR   Intensive IFR   Very Intensive IFR
Visi :
Ceiling :
>= 8 km
>= 3000ft
5 to 8 km
1000 to 3000 ft
1500m to 5 km
500 to 1000 ft
800 to 1500m
200 to 500 ft
< 800m
< 200 ft
Symbols :   Thunderstorms  Fog  Heavy snow  Heavy precipitations  Wind > 20 kt






- Airport Elevation : 729 ft
- IATA code : YTH


CYTH - Thompson

CURRENT METAR :
  • 080800Z 30008KT 15SM SKC M29/M33 A3002 RMK SLP197

EXPIRED METARs :
  • 080700Z 31006KT 15SM SKC M29/M32 A2999 RMK SLP189
  • 080600Z 30005KT 15SM DRSN SKC M28/M32 A2997 RMK SLP180

TAF TAF CYTH
Valid from the 08 at 07:00 until the 08 at 19:00 UTC


080638Z 0807/0819 29008KT P6SM SKC RMK NXT FCST BY 081300Z



MET'MAP, your aeronautical weather chart ! - Copyright ORBIFLY December 2007 - Disclaimer

ORBIFLY MET'MAP TEAM :

Programming & Development : Alexandra Zaïnal
Concept & original design : Baudouin d'Aumeries
Assistance for programming : Marc-Olivier Méhu
Technical & hardware support : Manuel Goepfert

Contact : metmap@orbifly.com




SOURCES & CREDITS :

   NOAA       Earth
Advisory